sensor_id;sensor_type;location;lat;lon;timestamp;P1;durP1;ratioP1;P2;durP2;ratioP2
6902;SDS011;20232;49.408;8.702;2023-02-22T05:01:31;10.10;;;8.80;;
6902;SDS011;20232;49.408;8.702;2023-02-22T05:03:57;11.83;;;8.70;;
6902;SDS011;20232;49.408;8.702;2023-02-22T05:06:23;12.90;;;9.43;;
6902;SDS011;20232;49.408;8.702;2023-02-22T05:08:49;11.63;;;8.40;;
6902;SDS011;20232;49.408;8.702;2023-02-22T05:11:14;10.40;;;8.80;;
6902;SDS011;20232;49.408;8.702;2023-02-22T05:13:40;9.53;;;8.63;;
6902;SDS011;20232;49.408;8.702;2023-02-22T05:16:06;10.30;;;8.20;;
6902;SDS011;20232;49.408;8.702;2023-02-22T05:18:31;11.73;;;8.70;;
6902;SDS011;20232;49.408;8.702;2023-02-22T05:20:57;12.47;;;8.63;;
6902;SDS011;20232;49.408;8.702;2023-02-22T05:23:22;11.10;;;8.33;;
6902;SDS011;20232;49.408;8.702;2023-02-22T05:25:48;14.23;;;9.77;;
6902;SDS011;20232;49.408;8.702;2023-02-22T05:28:14;10.47;;;8.30;;
6902;SDS011;20232;49.408;8.702;2023-02-22T05:30:41;9.77;;;8.57;;
6902;SDS011;20232;49.408;8.702;2023-02-22T05:33:07;12.40;;;8.77;;
6902;SDS011;20232;49.408;8.702;2023-02-22T05:35:33;11.30;;;9.30;;
6902;SDS011;20232;49.408;8.702;2023-02-22T05:37:59;11.07;;;8.83;;
6902;SDS011;20232;49.408;8.702;2023-02-22T05:40:27;11.37;;;8.60;;
6902;SDS011;20232;49.408;8.702;2023-02-22T05:42:54;10.90;;;8.60;;
6902;SDS011;20232;49.408;8.702;2023-02-22T05:45:23;11.30;;;8.87;;
6902;SDS011;20232;49.408;8.702;2023-02-22T05:47:50;12.80;;;8.67;;
6902;SDS011;20232;49.408;8.702;2023-02-22T05:50:17;18.03;;;8.77;;
6902;SDS011;20232;49.408;8.702;2023-02-22T05:52:43;14.23;;;9.33;;
6902;SDS011;20232;49.408;8.702;2023-02-22T05:55:10;10.53;;;8.80;;
6902;SDS011;20232;49.408;8.702;2023-02-22T05:57:38;12.27;;;8.50;;
6902;SDS011;20232;49.408;8.702;2023-02-22T06:00:04;13.00;;;8.90;;
6902;SDS011;20232;49.408;8.702;2023-02-22T06:02:31;13.67;;;9.00;;
6902;SDS011;20232;49.408;8.702;2023-02-22T06:04:57;10.97;;;9.00;;
6902;SDS011;20232;49.408;8.702;2023-02-22T06:07:23;11.30;;;9.17;;
6902;SDS011;20232;49.408;8.702;2023-02-22T06:09:49;11.83;;;9.17;;
6902;SDS011;20232;49.408;8.702;2023-02-22T06:12:14;11.67;;;9.27;;
6902;SDS011;20232;49.408;8.702;2023-02-22T06:14:40;12.73;;;10.20;;
6902;SDS011;20232;49.408;8.702;2023-02-22T06:17:10;11.23;;;9.13;;
6902;SDS011;20232;49.408;8.702;2023-02-22T06:19:37;15.93;;;10.07;;
6902;SDS011;20232;49.408;8.702;2023-02-22T06:22:04;13.43;;;9.80;;
6902;SDS011;20232;49.408;8.702;2023-02-22T06:24:30;13.57;;;10.40;;
6902;SDS011;20232;49.408;8.702;2023-02-22T06:26:56;15.30;;;10.07;;
6902;SDS011;20232;49.408;8.702;2023-02-22T06:29:24;14.27;;;9.73;;
6902;SDS011;20232;49.408;8.702;2023-02-22T06:31:51;17.67;;;10.80;;
6902;SDS011;20232;49.408;8.702;2023-02-22T06:34:17;12.73;;;9.70;;
6902;SDS011;20232;49.408;8.702;2023-02-22T06:36:43;14.23;;;10.13;;
6902;SDS011;20232;49.408;8.702;2023-02-22T06:39:09;15.30;;;9.97;;
6902;SDS011;20232;49.408;8.702;2023-02-22T06:41:39;11.20;;;9.00;;
6902;SDS011;20232;49.408;8.702;2023-02-22T06:44:06;12.67;;;9.40;;
6902;SDS011;20232;49.408;8.702;2023-02-22T06:46:32;10.23;;;8.67;;
6902;SDS011;20232;49.408;8.702;2023-02-22T06:48:58;10.47;;;8.57;;
6902;SDS011;20232;49.408;8.702;2023-02-22T06:51:24;11.33;;;8.70;;
6902;SDS011;20232;49.408;8.702;2023-02-22T06:53:50;9.57;;;8.30;;
6902;SDS011;20232;49.408;8.702;2023-02-22T06:56:16;10.80;;;8.57;;
6902;SDS011;20232;49.408;8.702;2023-02-22T06:58:42;12.27;;;8.50;;
6902;SDS011;20232;49.408;8.702;2023-02-22T07:01:07;11.13;;;8.60;;
6902;SDS011;20232;49.408;8.702;2023-02-22T07:03:33;12.00;;;8.73;;
6902;SDS011;20232;49.408;8.702;2023-02-22T07:06:00;9.90;;;8.60;;
6902;SDS011;20232;49.408;8.702;2023-02-22T07:08:26;11.47;;;8.40;;
6902;SDS011;20232;49.408;8.702;2023-02-22T07:10:52;14.80;;;10.23;;
6902;SDS011;20232;49.408;8.702;2023-02-22T07:13:18;12.23;;;9.30;;
6902;SDS011;20232;49.408;8.702;2023-02-22T07:15:43;12.60;;;9.73;;
6902;SDS011;20232;49.408;8.702;2023-02-22T07:18:09;12.03;;;9.67;;
6902;SDS011;20232;49.408;8.702;2023-02-22T07:20:36;12.27;;;9.97;;
6902;SDS011;20232;49.408;8.702;2023-02-22T07:23:02;13.00;;;9.37;;
6902;SDS011;20232;49.408;8.702;2023-02-22T07:25:28;11.80;;;9.47;;
6902;SDS011;20232;49.408;8.702;2023-02-22T07:27:54;13.43;;;9.43;;
6902;SDS011;20232;49.408;8.702;2023-02-22T07:32:48;14.47;;;9.77;;
6902;SDS011;20232;49.408;8.702;2023-02-22T07:35:16;13.90;;;9.80;;
6902;SDS011;20232;49.408;8.702;2023-02-22T07:38:03;13.27;;;9.43;;
6902;SDS011;20232;49.408;8.702;2023-02-22T07:40:30;14.67;;;9.50;;
6902;SDS011;20232;49.408;8.702;2023-02-22T07:45:28;14.10;;;10.60;;
6902;SDS011;20232;49.408;8.702;2023-02-22T07:47:57;13.53;;;9.73;;
6902;SDS011;20232;49.408;8.702;2023-02-22T07:50:24;11.93;;;9.57;;
6902;SDS011;20232;49.408;8.702;2023-02-22T07:52:52;15.07;;;10.13;;
6902;SDS011;20232;49.408;8.702;2023-02-22T07:55:20;14.97;;;10.23;;
6902;SDS011;20232;49.408;8.702;2023-02-22T07:57:49;14.13;;;10.33;;
6902;SDS011;20232;49.408;8.702;2023-02-22T08:00:20;14.70;;;10.53;;
6902;SDS011;20232;49.408;8.702;2023-02-22T08:02:52;16.40;;;11.30;;
6902;SDS011;20232;49.408;8.702;2023-02-22T08:05:18;14.77;;;10.67;;
6902;SDS011;20232;49.408;8.702;2023-02-22T08:07:45;15.27;;;11.03;;
6902;SDS011;20232;49.408;8.702;2023-02-22T08:10:12;16.83;;;10.80;;
6902;SDS011;20232;49.408;8.702;2023-02-22T08:12:38;15.80;;;11.07;;
6902;SDS011;20232;49.408;8.702;2023-02-22T08:15:05;16.80;;;12.10;;
6902;SDS011;20232;49.408;8.702;2023-02-22T08:17:33;17.33;;;12.07;;
6902;SDS011;20232;49.408;8.702;2023-02-22T08:19:58;12.60;;;10.70;;
6902;SDS011;20232;49.408;8.702;2023-02-22T08:22:24;14.20;;;10.50;;
6902;SDS011;20232;49.408;8.702;2023-02-22T08:24:51;13.77;;;10.47;;
6902;SDS011;20232;49.408;8.702;2023-02-22T08:27:24;17.27;;;11.40;;
6902;SDS011;20232;49.408;8.702;2023-02-22T08:29:51;15.97;;;11.73;;
6902;SDS011;20232;49.408;8.702;2023-02-22T08:32:17;15.53;;;10.87;;
6902;SDS011;20232;49.408;8.702;2023-02-22T08:34:43;17.23;;;11.50;;
6902;SDS011;20232;49.408;8.702;2023-02-22T08:37:09;16.00;;;10.73;;
6902;SDS011;20232;49.408;8.702;2023-02-22T08:39:35;14.30;;;10.70;;
6902;SDS011;20232;49.408;8.702;2023-02-22T08:42:00;18.63;;;11.87;;
6902;SDS011;20232;49.408;8.702;2023-02-22T08:44:26;23.30;;;16.07;;
6902;SDS011;20232;49.408;8.702;2023-02-22T08:46:51;19.83;;;13.77;;
6902;SDS011;20232;49.408;8.702;2023-02-22T08:49:17;20.33;;;14.63;;
6902;SDS011;20232;49.408;8.702;2023-02-22T08:51:44;16.93;;;13.93;;
6902;SDS011;20232;49.408;8.702;2023-02-22T08:54:10;18.10;;;13.67;;
6902;SDS011;20232;49.408;8.702;2023-02-22T08:56:35;17.57;;;13.77;;
6902;SDS011;20232;49.408;8.702;2023-02-22T08:59:01;15.73;;;13.40;;
6902;SDS011;20232;49.408;8.702;2023-02-22T09:01:27;16.23;;;13.17;;
6902;SDS011;20232;49.408;8.702;2023-02-22T09:03:53;16.03;;;12.87;;
6902;SDS011;20232;49.408;8.702;2023-02-22T09:06:20;15.77;;;12.67;;
6902;SDS011;20232;49.408;8.702;2023-02-22T09:08:46;17.23;;;11.63;;
6902;SDS011;20232;49.408;8.702;2023-02-22T09:11:11;15.87;;;12.60;;
6902;SDS011;20232;49.408;8.702;2023-02-22T09:13:37;14.97;;;11.80;;
6902;SDS011;20232;49.408;8.702;2023-02-22T09:16:02;14.67;;;11.87;;
6902;SDS011;20232;49.408;8.702;2023-02-22T09:18:28;14.30;;;12.47;;
6902;SDS011;20232;49.408;8.702;2023-02-22T09:20:54;18.37;;;11.80;;
6902;SDS011;20232;49.408;8.702;2023-02-22T09:23:20;14.20;;;12.10;;
6902;SDS011;20232;49.408;8.702;2023-02-22T09:25:49;13.33;;;11.20;;
6902;SDS011;20232;49.408;8.702;2023-02-22T09:28:15;14.37;;;11.30;;
6902;SDS011;20232;49.408;8.702;2023-02-22T09:30:41;17.67;;;12.27;;
6902;SDS011;20232;49.408;8.702;2023-02-22T09:33:14;16.20;;;11.87;;
6902;SDS011;20232;49.408;8.702;2023-02-22T09:35:42;14.93;;;12.10;;
6902;SDS011;20232;49.408;8.702;2023-02-22T09:38:10;14.40;;;11.30;;
6902;SDS011;20232;49.408;8.702;2023-02-22T09:40:45;16.03;;;11.90;;
6902;SDS011;20232;49.408;8.702;2023-02-22T09:46:33;15.03;;;11.10;;
6902;SDS011;20232;49.408;8.702;2023-02-22T09:51:41;15.47;;;11.73;;
6902;SDS011;20232;49.408;8.702;2023-02-22T09:54:57;15.70;;;11.33;;
6902;SDS011;20232;49.408;8.702;2023-02-22T09:57:09;12.73;;;10.60;;
6902;SDS011;20232;49.408;8.702;2023-02-22T09:59:42;14.43;;;10.73;;
6902;SDS011;20232;49.408;8.702;2023-02-22T10:04:50;13.67;;;10.63;;
6902;SDS011;20232;49.408;8.702;2023-02-22T10:07:42;19.57;;;11.20;;
6902;SDS011;20232;49.408;8.702;2023-02-22T10:10:18;19.10;;;11.40;;
6902;SDS011;20232;49.408;8.702;2023-02-22T10:15:23;13.73;;;10.60;;
6902;SDS011;20232;49.408;8.702;2023-02-22T10:18:22;14.73;;;11.47;;
6902;SDS011;20232;49.408;8.702;2023-02-22T10:21:16;14.70;;;11.00;;
6902;SDS011;20232;49.408;8.702;2023-02-22T10:26:44;14.37;;;10.63;;
6902;SDS011;20232;49.408;8.702;2023-02-22T10:31:42;15.70;;;11.13;;
6902;SDS011;20232;49.408;8.702;2023-02-22T10:34:16;17.73;;;11.90;;
6902;SDS011;20232;49.408;8.702;2023-02-22T10:36:52;14.10;;;10.93;;
6902;SDS011;20232;49.408;8.702;2023-02-22T10:39:27;17.07;;;11.00;;
6902;SDS011;20232;49.408;8.702;2023-02-22T10:42:00;15.90;;;10.50;;
6902;SDS011;20232;49.408;8.702;2023-02-22T10:44:34;15.70;;;10.30;;
6902;SDS011;20232;49.408;8.702;2023-02-22T10:47:01;13.73;;;10.53;;
6902;SDS011;20232;49.408;8.702;2023-02-22T10:49:34;11.50;;;10.10;;
6902;SDS011;20232;49.408;8.702;2023-02-22T10:52:03;14.87;;;10.00;;
6902;SDS011;20232;49.408;8.702;2023-02-22T10:54:37;12.43;;;9.83;;
6902;SDS011;20232;49.408;8.702;2023-02-22T10:57:06;13.30;;;10.10;;
6902;SDS011;20232;49.408;8.702;2023-02-22T10:59:33;12.43;;;10.53;;
6902;SDS011;20232;49.408;8.702;2023-02-22T11:02:00;14.60;;;10.07;;
6902;SDS011;20232;49.408;8.702;2023-02-22T11:04:52;12.97;;;9.87;;
6902;SDS011;20232;49.408;8.702;2023-02-22T11:07:26;14.73;;;9.80;;
6902;SDS011;20232;49.408;8.702;2023-02-22T11:09:57;13.33;;;10.80;;
6902;SDS011;20232;49.408;8.702;2023-02-22T11:15:26;15.37;;;10.40;;
6902;SDS011;20232;49.408;8.702;2023-02-22T11:17:52;13.33;;;9.90;;
6902;SDS011;20232;49.408;8.702;2023-02-22T11:22:56;13.20;;;9.60;;
6902;SDS011;20232;49.408;8.702;2023-02-22T11:25:32;18.37;;;10.33;;
6902;SDS011;20232;49.408;8.702;2023-02-22T11:28:10;14.23;;;10.30;;
6902;SDS011;20232;49.408;8.702;2023-02-22T11:30:43;12.57;;;9.40;;
6902;SDS011;20232;49.408;8.702;2023-02-22T11:35:57;10.00;;;8.93;;
6902;SDS011;20232;49.408;8.702;2023-02-22T11:38:28;12.70;;;9.17;;
6902;SDS011;20232;49.408;8.702;2023-02-22T11:41:20;10.37;;;9.27;;
6902;SDS011;20232;49.408;8.702;2023-02-22T11:43:54;12.87;;;9.47;;
6902;SDS011;20232;49.408;8.702;2023-02-22T11:46:38;11.70;;;9.27;;
6902;SDS011;20232;49.408;8.702;2023-02-22T11:49:06;11.40;;;9.33;;
6902;SDS011;20232;49.408;8.702;2023-02-22T11:57:40;11.50;;;9.43;;
6902;SDS011;20232;49.408;8.702;2023-02-22T12:00:21;12.30;;;9.97;;
6902;SDS011;20232;49.408;8.702;2023-02-22T12:03:11;14.03;;;10.20;;
6902;SDS011;20232;49.408;8.702;2023-02-22T12:11:47;12.33;;;10.17;;
6902;SDS011;20232;49.408;8.702;2023-02-22T12:14:29;11.33;;;9.60;;
6902;SDS011;20232;49.408;8.702;2023-02-22T12:17:22;11.67;;;9.93;;
6902;SDS011;20232;49.408;8.702;2023-02-22T12:22:38;13.77;;;10.33;;
6902;SDS011;20232;49.408;8.702;2023-02-22T12:27:57;11.03;;;9.83;;
6902;SDS011;20232;49.408;8.702;2023-02-22T12:30:28;15.47;;;10.20;;
6902;SDS011;20232;49.408;8.702;2023-02-22T12:32:58;14.73;;;10.43;;
6902;SDS011;20232;49.408;8.702;2023-02-22T12:35:33;12.83;;;10.17;;
6902;SDS011;20232;49.408;8.702;2023-02-22T12:38:12;12.97;;;10.17;;
6902;SDS011;20232;49.408;8.702;2023-02-22T12:40:45;14.60;;;10.70;;
6902;SDS011;20232;49.408;8.702;2023-02-22T12:56:52;12.43;;;10.30;;
6902;SDS011;20232;49.408;8.702;2023-02-22T12:59:32;13.80;;;10.50;;
6902;SDS011;20232;49.408;8.702;2023-02-22T13:04:41;12.53;;;9.93;;
6902;SDS011;20232;49.408;8.702;2023-02-22T13:15:55;13.93;;;10.77;;
6902;SDS011;20232;49.408;8.702;2023-02-22T13:18:41;12.93;;;11.30;;
6902;SDS011;20232;49.408;8.702;2023-02-22T13:23:53;14.23;;;10.67;;
6902;SDS011;20232;49.408;8.702;2023-02-22T13:29:09;13.27;;;10.40;;
6902;SDS011;20232;49.408;8.702;2023-02-22T13:42:34;16.43;;;10.53;;
6902;SDS011;20232;49.408;8.702;2023-02-22T13:56:41;16.17;;;11.43;;
6902;SDS011;20232;49.408;8.702;2023-02-22T13:59:19;13.80;;;11.07;;
6902;SDS011;20232;49.408;8.702;2023-02-22T14:01:49;15.47;;;10.87;;
6902;SDS011;20232;49.408;8.702;2023-02-22T14:06:55;13.23;;;11.03;;
6902;SDS011;20232;49.408;8.702;2023-02-22T14:09:58;13.97;;;11.03;;
6902;SDS011;20232;49.408;8.702;2023-02-22T14:20:39;12.77;;;10.97;;
6902;SDS011;20232;49.408;8.702;2023-02-22T14:25:52;16.70;;;10.97;;
6902;SDS011;20232;49.408;8.702;2023-02-22T14:31:09;13.03;;;11.13;;
6902;SDS011;20232;49.408;8.702;2023-02-22T14:36:28;12.43;;;11.13;;
6902;SDS011;20232;49.408;8.702;2023-02-22T14:39:19;15.67;;;11.17;;
6902;SDS011;20232;49.408;8.702;2023-02-22T14:41:59;12.77;;;10.53;;
6902;SDS011;20232;49.408;8.702;2023-02-22T14:44:29;13.77;;;10.30;;
6902;SDS011;20232;49.408;8.702;2023-02-22T14:47:05;13.50;;;10.07;;
6902;SDS011;20232;49.408;8.702;2023-02-22T14:49:34;10.73;;;8.57;;
6902;SDS011;20232;49.408;8.702;2023-02-22T14:52:17;11.60;;;8.87;;
6902;SDS011;20232;49.408;8.702;2023-02-22T14:54:51;11.93;;;8.70;;
6902;SDS011;20232;49.408;8.702;2023-02-22T15:02:47;11.77;;;9.13;;
6902;SDS011;20232;49.408;8.702;2023-02-22T15:05:15;11.57;;;8.27;;
6902;SDS011;20232;49.408;8.702;2023-02-22T15:07:53;13.83;;;8.97;;
6902;SDS011;20232;49.408;8.702;2023-02-22T15:10:37;13.83;;;9.30;;
6902;SDS011;20232;49.408;8.702;2023-02-22T15:13:12;12.30;;;9.47;;
6902;SDS011;20232;49.408;8.702;2023-02-22T15:15:41;13.83;;;8.90;;
6902;SDS011;20232;49.408;8.702;2023-02-22T15:21:01;13.37;;;9.30;;
6902;SDS011;20232;49.408;8.702;2023-02-22T15:23:38;11.70;;;8.70;;
6902;SDS011;20232;49.408;8.702;2023-02-22T15:26:26;13.23;;;8.43;;
6902;SDS011;20232;49.408;8.702;2023-02-22T15:29:09;14.43;;;8.97;;
6902;SDS011;20232;49.408;8.702;2023-02-22T15:31:41;12.07;;;8.50;;
6902;SDS011;20232;49.408;8.702;2023-02-22T15:36:39;13.93;;;10.10;;
6902;SDS011;20232;49.408;8.702;2023-02-22T15:39:15;12.97;;;9.07;;
6902;SDS011;20232;49.408;8.702;2023-02-22T15:44:43;12.33;;;8.97;;
6902;SDS011;20232;49.408;8.702;2023-02-22T15:47:17;14.57;;;9.23;;
6902;SDS011;20232;49.408;8.702;2023-02-22T15:49:45;12.40;;;8.97;;
6902;SDS011;20232;49.408;8.702;2023-02-22T15:52:39;11.30;;;8.77;;
6902;SDS011;20232;49.408;8.702;2023-02-22T15:55:13;12.53;;;8.30;;
6902;SDS011;20232;49.408;8.702;2023-02-22T15:57:41;12.43;;;8.30;;
6902;SDS011;20232;49.408;8.702;2023-02-22T16:00:07;15.60;;;7.50;;
6902;SDS011;20232;49.408;8.702;2023-02-22T16:02:44;14.40;;;8.03;;
6902;SDS011;20232;49.408;8.702;2023-02-22T16:05:11;13.40;;;8.17;;
6902;SDS011;20232;49.408;8.702;2023-02-22T16:07:39;13.27;;;8.60;;
6902;SDS011;20232;49.408;8.702;2023-02-22T16:10:28;12.40;;;8.63;;
6902;SDS011;20232;49.408;8.702;2023-02-22T16:15:53;14.57;;;8.47;;
6902;SDS011;20232;49.408;8.702;2023-02-22T16:18:27;11.43;;;8.33;;
6902;SDS011;20232;49.408;8.702;2023-02-22T16:21:03;12.23;;;8.70;;
6902;SDS011;20232;49.408;8.702;2023-02-22T16:23:31;12.87;;;8.30;;
6902;SDS011;20232;49.408;8.702;2023-02-22T16:26:16;13.30;;;9.03;;
6902;SDS011;20232;49.408;8.702;2023-02-22T16:28:48;11.10;;;8.33;;
6902;SDS011;20232;49.408;8.702;2023-02-22T16:31:19;11.73;;;8.00;;
6902;SDS011;20232;49.408;8.702;2023-02-22T16:33:46;11.27;;;8.40;;
6902;SDS011;20232;49.408;8.702;2023-02-22T16:36:12;13.40;;;8.30;;
6902;SDS011;20232;49.408;8.702;2023-02-22T16:38:38;13.63;;;8.90;;
6902;SDS011;20232;49.408;8.702;2023-02-22T16:41:07;15.77;;;9.40;;
6902;SDS011;20232;49.408;8.702;2023-02-22T16:43:32;15.77;;;9.07;;
6902;SDS011;20232;49.408;8.702;2023-02-22T16:45:59;13.27;;;8.87;;
6902;SDS011;20232;49.408;8.702;2023-02-22T16:48:27;13.10;;;8.57;;
6902;SDS011;20232;49.408;8.702;2023-02-22T16:50:54;13.40;;;8.20;;
6902;SDS011;20232;49.408;8.702;2023-02-22T16:53:42;12.23;;;8.30;;
6902;SDS011;20232;49.408;8.702;2023-02-22T16:56:09;12.87;;;8.50;;
6902;SDS011;20232;49.408;8.702;2023-02-22T16:58:38;11.83;;;8.50;;
6902;SDS011;20232;49.408;8.702;2023-02-22T17:01:05;17.73;;;9.13;;
6902;SDS011;20232;49.408;8.702;2023-02-22T17:03:31;17.63;;;9.33;;
6902;SDS011;20232;49.408;8.702;2023-02-22T17:05:56;16.37;;;10.27;;
6902;SDS011;20232;49.408;8.702;2023-02-22T17:08:22;12.80;;;9.80;;
6902;SDS011;20232;49.408;8.702;2023-02-22T17:10:48;23.70;;;15.00;;
6902;SDS011;20232;49.408;8.702;2023-02-22T17:13:16;12.27;;;8.90;;
6902;SDS011;20232;49.408;8.702;2023-02-22T17:15:44;18.73;;;13.10;;
6902;SDS011;20232;49.408;8.702;2023-02-22T17:18:11;17.60;;;11.37;;
6902;SDS011;20232;49.408;8.702;2023-02-22T17:20:38;24.37;;;13.30;;
6902;SDS011;20232;49.408;8.702;2023-02-22T17:23:07;14.50;;;10.00;;
6902;SDS011;20232;49.408;8.702;2023-02-22T17:25:38;13.17;;;9.60;;
6902;SDS011;20232;49.408;8.702;2023-02-22T17:28:05;12.97;;;9.33;;
6902;SDS011;20232;49.408;8.702;2023-02-22T17:30:32;15.27;;;10.73;;
6902;SDS011;20232;49.408;8.702;2023-02-22T17:32:59;14.37;;;10.23;;
6902;SDS011;20232;49.408;8.702;2023-02-22T17:35:28;12.50;;;9.73;;
6902;SDS011;20232;49.408;8.702;2023-02-22T17:37:57;14.07;;;10.17;;
6902;SDS011;20232;49.408;8.702;2023-02-22T17:40:23;15.80;;;10.13;;
6902;SDS011;20232;49.408;8.702;2023-02-22T17:42:49;13.53;;;10.80;;
6902;SDS011;20232;49.408;8.702;2023-02-22T17:45:19;13.97;;;10.23;;
6902;SDS011;20232;49.408;8.702;2023-02-22T17:47:47;15.67;;;11.07;;
6902;SDS011;20232;49.408;8.702;2023-02-22T17:50:14;13.50;;;11.13;;
6902;SDS011;20232;49.408;8.702;2023-02-22T17:52:40;13.47;;;10.67;;
6902;SDS011;20232;49.408;8.702;2023-02-22T17:55:07;14.57;;;10.70;;
6902;SDS011;20232;49.408;8.702;2023-02-22T17:57:34;16.03;;;11.17;;
6902;SDS011;20232;49.408;8.702;2023-02-22T18:00:00;17.50;;;12.40;;
6902;SDS011;20232;49.408;8.702;2023-02-22T18:02:36;15.93;;;12.07;;
6902;SDS011;20232;49.408;8.702;2023-02-22T18:05:06;18.67;;;12.03;;
6902;SDS011;20232;49.408;8.702;2023-02-22T18:07:38;18.97;;;13.50;;
6902;SDS011;20232;49.408;8.702;2023-02-22T18:10:04;21.20;;;15.77;;
6902;SDS011;20232;49.408;8.702;2023-02-22T18:12:35;18.60;;;13.67;;
6902;SDS011;20232;49.408;8.702;2023-02-22T18:15:01;21.93;;;15.63;;
6902;SDS011;20232;49.408;8.702;2023-02-22T18:17:28;28.70;;;22.80;;
6902;SDS011;20232;49.408;8.702;2023-02-22T18:19:53;31.23;;;21.93;;
6902;SDS011;20232;49.408;8.702;2023-02-22T18:22:19;27.17;;;19.97;;
6902;SDS011;20232;49.408;8.702;2023-02-22T18:24:44;24.07;;;18.60;;
6902;SDS011;20232;49.408;8.702;2023-02-22T18:27:10;20.80;;;15.33;;
6902;SDS011;20232;49.408;8.702;2023-02-22T18:29:35;21.70;;;17.87;;
6902;SDS011;20232;49.408;8.702;2023-02-22T18:32:01;23.50;;;18.00;;
6902;SDS011;20232;49.408;8.702;2023-02-22T18:34:27;22.10;;;17.57;;
6902;SDS011;20232;49.408;8.702;2023-02-22T18:36:53;20.63;;;17.63;;
6902;SDS011;20232;49.408;8.702;2023-02-22T18:39:19;21.50;;;17.87;;
6902;SDS011;20232;49.408;8.702;2023-02-22T18:41:45;23.37;;;17.67;;
6902;SDS011;20232;49.408;8.702;2023-02-22T18:44:13;24.90;;;18.50;;
6902;SDS011;20232;49.408;8.702;2023-02-22T18:46:39;25.60;;;18.67;;
6902;SDS011;20232;49.408;8.702;2023-02-22T18:49:04;23.37;;;18.03;;
6902;SDS011;20232;49.408;8.702;2023-02-22T18:51:30;22.07;;;17.57;;
6902;SDS011;20232;49.408;8.702;2023-02-22T18:53:56;23.27;;;18.87;;
6902;SDS011;20232;49.408;8.702;2023-02-22T18:56:25;20.97;;;17.83;;
6902;SDS011;20232;49.408;8.702;2023-02-22T18:58:56;24.47;;;18.80;;
6902;SDS011;20232;49.408;8.702;2023-02-22T19:01:23;22.57;;;18.57;;
6902;SDS011;20232;49.408;8.702;2023-02-22T19:03:49;24.87;;;18.87;;
6902;SDS011;20232;49.408;8.702;2023-02-22T19:06:16;21.57;;;18.17;;
6902;SDS011;20232;49.408;8.702;2023-02-22T19:08:42;20.00;;;17.90;;
6902;SDS011;20232;49.408;8.702;2023-02-22T19:11:10;22.73;;;19.20;;
6902;SDS011;20232;49.408;8.702;2023-02-22T19:13:43;25.63;;;19.73;;
6902;SDS011;20232;49.408;8.702;2023-02-22T19:16:13;23.97;;;20.57;;
6902;SDS011;20232;49.408;8.702;2023-02-22T19:18:39;26.17;;;20.50;;
6902;SDS011;20232;49.408;8.702;2023-02-22T19:21:08;28.20;;;20.47;;
6902;SDS011;20232;49.408;8.702;2023-02-22T19:23:35;26.63;;;19.97;;
6902;SDS011;20232;49.408;8.702;2023-02-22T19:26:02;25.80;;;19.23;;
6902;SDS011;20232;49.408;8.702;2023-02-22T19:28:28;24.53;;;20.57;;
6902;SDS011;20232;49.408;8.702;2023-02-22T19:31:10;23.30;;;20.60;;
6902;SDS011;20232;49.408;8.702;2023-02-22T19:33:43;21.83;;;19.40;;
6902;SDS011;20232;49.408;8.702;2023-02-22T19:36:10;25.93;;;21.83;;
6902;SDS011;20232;49.408;8.702;2023-02-22T19:38:37;25.80;;;19.43;;
6902;SDS011;20232;49.408;8.702;2023-02-22T19:41:09;23.30;;;19.73;;
6902;SDS011;20232;49.408;8.702;2023-02-22T19:43:51;22.57;;;18.40;;
6902;SDS011;20232;49.408;8.702;2023-02-22T19:46:17;22.60;;;18.70;;
6902;SDS011;20232;49.408;8.702;2023-02-22T19:48:49;23.00;;;18.30;;
6902;SDS011;20232;49.408;8.702;2023-02-22T19:51:15;23.07;;;18.47;;
6902;SDS011;20232;49.408;8.702;2023-02-22T19:53:42;19.70;;;17.43;;
6902;SDS011;20232;49.408;8.702;2023-02-22T19:56:10;22.07;;;17.90;;
6902;SDS011;20232;49.408;8.702;2023-02-22T19:58:41;38.20;;;28.37;;
6902;SDS011;20232;49.408;8.702;2023-02-22T20:01:18;63.47;;;40.03;;
6902;SDS011;20232;49.408;8.702;2023-02-22T20:03:56;24.53;;;18.57;;
6902;SDS011;20232;49.408;8.702;2023-02-22T20:06:42;25.60;;;19.43;;
6902;SDS011;20232;49.408;8.702;2023-02-22T20:09:18;26.83;;;19.43;;
6902;SDS011;20232;49.408;8.702;2023-02-22T20:11:47;51.67;;;31.57;;
6902;SDS011;20232;49.408;8.702;2023-02-22T20:14:18;40.90;;;25.20;;
6902;SDS011;20232;49.408;8.702;2023-02-22T20:16:47;28.23;;;20.33;;
6902;SDS011;20232;49.408;8.702;2023-02-22T20:19:13;21.10;;;17.70;;
6902;SDS011;20232;49.408;8.702;2023-02-22T20:21:39;27.67;;;22.30;;
6902;SDS011;20232;49.408;8.702;2023-02-22T20:24:05;26.53;;;20.63;;
6902;SDS011;20232;49.408;8.702;2023-02-22T20:26:33;28.87;;;22.13;;
6902;SDS011;20232;49.408;8.702;2023-02-22T20:28:59;52.50;;;37.73;;
6902;SDS011;20232;49.408;8.702;2023-02-22T20:31:27;29.13;;;20.93;;
6902;SDS011;20232;49.408;8.702;2023-02-22T20:33:55;27.37;;;20.90;;
6902;SDS011;20232;49.408;8.702;2023-02-22T20:36:23;48.47;;;33.27;;
6902;SDS011;20232;49.408;8.702;2023-02-22T20:38:50;41.07;;;31.47;;
6902;SDS011;20232;49.408;8.702;2023-02-22T20:41:24;56.80;;;39.13;;
6902;SDS011;20232;49.408;8.702;2023-02-22T20:43:54;36.03;;;28.33;;
6902;SDS011;20232;49.408;8.702;2023-02-22T20:46:21;29.93;;;22.63;;
6902;SDS011;20232;49.408;8.702;2023-02-22T20:48:52;35.40;;;25.13;;
6902;SDS011;20232;49.408;8.702;2023-02-22T20:51:19;27.23;;;21.27;;
6902;SDS011;20232;49.408;8.702;2023-02-22T20:53:44;27.63;;;21.30;;
6902;SDS011;20232;49.408;8.702;2023-02-22T20:56:12;24.47;;;19.40;;
6902;SDS011;20232;49.408;8.702;2023-02-22T20:58:39;23.83;;;20.03;;
6902;SDS011;20232;49.408;8.702;2023-02-22T21:01:06;31.27;;;23.60;;
6902;SDS011;20232;49.408;8.702;2023-02-22T21:03:33;41.50;;;31.37;;
6902;SDS011;20232;49.408;8.702;2023-02-22T21:05:59;36.33;;;28.13;;
6902;SDS011;20232;49.408;8.702;2023-02-22T21:08:28;62.40;;;41.03;;
6902;SDS011;20232;49.408;8.702;2023-02-22T21:10:55;55.30;;;39.03;;
6902;SDS011;20232;49.408;8.702;2023-02-22T21:13:21;87.63;;;55.17;;
6902;SDS011;20232;49.408;8.702;2023-02-22T21:15:47;107.67;;;55.00;;
6902;SDS011;20232;49.408;8.702;2023-02-22T21:18:13;72.67;;;43.20;;
6902;SDS011;20232;49.408;8.702;2023-02-22T21:20:39;61.33;;;42.87;;
6902;SDS011;20232;49.408;8.702;2023-02-22T21:23:07;40.50;;;31.77;;
6902;SDS011;20232;49.408;8.702;2023-02-22T21:25:34;54.97;;;42.73;;
6902;SDS011;20232;49.408;8.702;2023-02-22T21:28:01;35.60;;;27.93;;
6902;SDS011;20232;49.408;8.702;2023-02-22T21:30:27;30.60;;;22.73;;
6902;SDS011;20232;49.408;8.702;2023-02-22T21:32:53;24.93;;;20.47;;
6902;SDS011;20232;49.408;8.702;2023-02-22T21:35:22;22.17;;;17.93;;
6902;SDS011;20232;49.408;8.702;2023-02-22T21:37:49;26.63;;;18.97;;
6902;SDS011;20232;49.408;8.702;2023-02-22T21:40:15;24.10;;;19.57;;
6902;SDS011;20232;49.408;8.702;2023-02-22T21:42:44;26.07;;;20.17;;
6902;SDS011;20232;49.408;8.702;2023-02-22T21:45:13;28.00;;;23.57;;
6902;SDS011;20232;49.408;8.702;2023-02-22T21:47:45;23.20;;;19.27;;
6902;SDS011;20232;49.408;8.702;2023-02-22T21:50:15;22.53;;;18.73;;
6902;SDS011;20232;49.408;8.702;2023-02-22T21:52:43;26.57;;;19.83;;
6902;SDS011;20232;49.408;8.702;2023-02-22T21:55:11;29.77;;;22.47;;
6902;SDS011;20232;49.408;8.702;2023-02-22T21:57:40;36.73;;;28.37;;
6902;SDS011;20232;49.408;8.702;2023-02-22T22:00:07;22.13;;;17.77;;
6902;SDS011;20232;49.408;8.702;2023-02-22T22:02:41;22.90;;;17.73;;
6902;SDS011;20232;49.408;8.702;2023-02-22T22:05:15;25.07;;;18.97;;
6902;SDS011;20232;49.408;8.702;2023-02-22T22:07:47;26.63;;;20.37;;
6902;SDS011;20232;49.408;8.702;2023-02-22T22:10:13;31.17;;;23.80;;